Time;durP1;ratioP1;P1;durP2;ratioP2;P2;SDS_P1;SDS_P2;PMS_P1;PMS_P2;Temp;Humidity;BMP_temperature;BMP_pressure;BME280_temperature;BME280_humidity;BME280_pressure;Samples;Min_cycle;Max_cycle;Signal;HPM_P1;HPM_P2
2022/03/01 00:00:32;;;;;;;29.77;12.90;;;4.00;61.00;;;;;;5037532;28;20236;-72
2022/03/01 00:03:02;;;;;;;26.00;14.85;;;4.00;61.10;;;;;;5035815;28;20322;-71
2022/03/01 00:05:30;;;;;;;27.23;15.02;;;4.00;61.00;;;;;;5041240;28;20700;-74
2022/03/01 00:07:58;;;;;;;25.05;14.40;;;4.00;60.90;;;;;;5032842;28;20212;-70
2022/03/01 00:10:28;;;;;;;27.13;14.35;;;3.90;61.00;;;;;;5020553;28;20276;-69
2022/03/01 00:12:56;;;;;;;23.13;13.80;;;3.90;60.90;;;;;;5037166;28;20240;-69
2022/03/01 00:15:25;;;;;;;24.33;14.32;;;3.90;60.90;;;;;;5035114;28;21501;-70
2022/03/01 00:17:53;;;;;;;24.17;12.73;;;3.80;60.80;;;;;;5035561;28;20219;-69
2022/03/01 00:20:23;;;;;;;21.55;12.82;;;3.70;60.80;;;;;;5036945;28;20206;-70
2022/03/01 00:22:51;;;;;;;25.08;13.75;;;3.70;61.00;;;;;;5034682;28;20205;-69
2022/03/01 00:25:19;;;;;;;25.63;14.18;;;3.70;61.00;;;;;;5036475;28;20379;-69
2022/03/01 00:27:47;;;;;;;28.52;14.57;;;3.70;61.10;;;;;;5030782;28;20747;-69
2022/03/01 00:30:15;;;;;;;22.42;13.75;;;3.70;61.10;;;;;;5038936;28;20212;-69
2022/03/01 00:32:47;;;;;;;29.67;14.95;;;3.70;61.00;;;;;;5035716;28;20197;-69
2022/03/01 00:35:15;;;;;;;25.40;14.07;;;3.70;61.00;;;;;;5035641;28;20713;-70
2022/03/01 00:37:44;;;;;;;24.02;12.80;;;3.60;60.90;;;;;;5032770;28;20197;-71
2022/03/01 00:40:13;;;;;;;24.85;13.27;;;3.60;60.90;;;;;;5035103;28;20205;-71
2022/03/01 00:42:41;;;;;;;23.40;13.68;;;3.60;61.00;;;;;;5032623;28;20208;-72
2022/03/01 00:45:10;;;;;;;28.88;13.52;;;3.50;60.90;;;;;;5034725;28;20753;-72
2022/03/01 00:47:38;;;;;;;21.40;13.15;;;3.40;60.90;;;;;;5031676;28;20783;-72
2022/03/01 00:50:07;;;;;;;24.52;13.70;;;3.40;60.90;;;;;;5031171;28;20212;-70
2022/03/01 00:52:36;;;;;;;25.95;12.77;;;3.30;61.00;;;;;;5032284;28;20205;-70
2022/03/01 00:55:09;;;;;;;27.98;14.27;;;3.30;61.20;;;;;;5031697;28;20231;-71
2022/03/01 00:57:37;;;;;;;23.48;13.90;;;3.30;61.20;;;;;;5031756;28;20213;-71
2022/03/01 01:00:09;;;;;;;26.40;14.90;;;3.20;61.20;;;;;;5032036;28;20205;-72
2022/03/01 01:02:37;;;;;;;26.20;13.48;;;3.20;61.20;;;;;;5032711;28;20288;-70
2022/03/01 01:05:08;;;;;;;22.75;13.38;;;3.10;61.30;;;;;;5031184;28;20244;-71
2022/03/01 01:07:37;;;;;;;27.17;14.52;;;3.00;61.40;;;;;;5031372;28;20730;-70
2022/03/01 01:10:05;;;;;;;25.45;14.30;;;3.00;61.40;;;;;;5030243;28;20215;-71
2022/03/01 01:12:36;;;;;;;23.58;14.90;;;2.90;61.70;;;;;;5030903;28;20202;-71
2022/03/01 01:15:06;;;;;;;24.02;13.40;;;2.90;61.60;;;;;;5033055;28;20232;-71
2022/03/01 01:17:34;;;;;;;28.48;14.98;;;2.80;61.70;;;;;;5029687;28;20232;-70
2022/03/01 01:20:03;;;;;;;24.00;14.05;;;2.80;61.90;;;;;;5029916;28;20196;-71
2022/03/01 01:22:43;;;;;;;26.70;14.68;;;2.70;61.90;;;;;;5046493;28;20972;-70
2022/03/01 01:25:16;;;;;;;25.75;14.80;;;2.70;62.00;;;;;;5031285;28;20227;-70
2022/03/01 01:27:48;;;;;;;25.75;13.80;;;2.70;62.00;;;;;;5028474;28;20196;-71
2022/03/01 01:30:18;;;;;;;20.67;13.50;;;2.70;61.90;;;;;;5030919;28;20760;-70
2022/03/01 01:32:48;;;;;;;23.67;13.55;;;2.70;62.00;;;;;;5032383;28;20232;-69
2022/03/01 01:35:19;;;;;;;26.08;14.52;;;2.80;62.00;;;;;;5031259;28;20233;-70
2022/03/01 01:37:47;;;;;;;26.27;14.40;;;2.80;62.10;;;;;;5031809;28;20219;-71
2022/03/01 01:40:20;;;;;;;27.55;15.20;;;2.80;62.10;;;;;;5029639;28;20620;-70
2022/03/01 01:42:51;;;;;;;40.20;22.77;;;2.80;62.10;;;;;;5030982;28;20207;-71
2022/03/01 01:45:20;;;;;;;37.33;17.90;;;2.80;62.10;;;;;;5030506;28;20216;-71
2022/03/01 01:47:50;;;;;;;35.83;17.20;;;2.80;62.10;;;;;;5029659;28;20266;-70
2022/03/01 01:50:22;;;;;;;26.08;13.68;;;2.70;62.10;;;;;;5031069;28;20206;-71
2022/03/01 01:52:51;;;;;;;25.52;15.13;;;2.70;62.10;;;;;;5028483;28;20204;-69
2022/03/01 01:55:23;;;;;;;29.50;15.23;;;2.60;62.30;;;;;;5033146;28;20769;-69
2022/03/01 01:57:58;;;;;;;26.38;15.02;;;2.60;62.30;;;;;;5032224;28;20205;-69
2022/03/01 02:00:28;;;;;;;26.33;14.52;;;2.60;62.40;;;;;;5035236;28;20255;-69
2022/03/01 02:02:58;;;;;;;26.05;13.98;;;2.60;62.50;;;;;;5033801;28;20200;-69
2022/03/01 02:05:27;;;;;;;22.92;13.73;;;2.60;62.50;;;;;;5034479;28;20239;-70
2022/03/01 02:07:55;;;;;;;25.08;13.35;;;2.60;62.60;;;;;;5030119;28;20597;-69
2022/03/01 02:10:26;;;;;;;28.90;16.10;;;2.50;62.60;;;;;;5031615;28;20912;-69
2022/03/01 02:12:56;;;;;;;22.67;13.65;;;2.50;62.70;;;;;;5031072;28;20993;-69
2022/03/01 02:15:25;;;;;;;24.75;14.45;;;2.60;62.80;;;;;;5030278;28;21151;-70
2022/03/01 02:17:54;;;;;;;23.95;13.90;;;2.60;62.90;;;;;;5028573;28;20295;-69
2022/03/01 02:20:24;;;;;;;23.30;14.20;;;2.60;62.70;;;;;;5029497;28;20212;-69
2022/03/01 02:22:54;;;;;;;27.05;14.60;;;2.60;62.60;;;;;;5029562;28;20210;-69
2022/03/01 02:25:22;;;;;;;23.92;14.70;;;2.50;62.60;;;;;;5032464;28;20766;-69
2022/03/01 02:27:51;;;;;;;27.45;14.57;;;2.50;62.60;;;;;;5029448;28;20201;-69
2022/03/01 02:30:19;;;;;;;27.30;13.88;;;2.40;62.60;;;;;;5026726;28;20201;-69
2022/03/01 02:32:48;;;;;;;22.50;12.90;;;2.40;62.60;;;;;;5028270;28;20205;-69
2022/03/01 02:35:16;;;;;;;28.27;13.35;;;2.30;62.80;;;;;;5030007;28;20237;-69
2022/03/01 02:37:45;;;;;;;25.70;13.95;;;2.30;62.80;;;;;;5032822;28;20260;-69
2022/03/01 02:40:14;;;;;;;25.08;13.45;;;2.20;62.90;;;;;;5027275;28;20913;-69
2022/03/01 02:42:44;;;;;;;20.88;12.98;;;2.20;62.90;;;;;;5026366;28;20258;-70
2022/03/01 02:45:14;;;;;;;23.17;13.35;;;2.20;63.00;;;;;;5027928;28;20223;-69
2022/03/01 02:47:42;;;;;;;24.10;14.23;;;2.20;63.00;;;;;;5035325;28;20217;-69
2022/03/01 02:50:12;;;;;;;23.60;13.82;;;2.20;63.00;;;;;;5030241;28;20206;-69
2022/03/01 02:52:40;;;;;;;22.77;13.18;;;2.30;63.10;;;;;;5035109;28;20209;-69
2022/03/01 02:55:11;;;;;;;27.48;14.43;;;2.30;63.10;;;;;;5033525;28;20766;-69
2022/03/01 02:57:40;;;;;;;25.63;14.07;;;2.30;63.10;;;;;;5029920;28;20212;-70
2022/03/01 03:00:10;;;;;;;26.55;14.18;;;2.30;63.10;;;;;;5032829;28;20209;-69
2022/03/01 03:02:41;;;;;;;21.27;12.68;;;2.30;63.00;;;;;;5063228;28;20205;-69
2022/03/01 03:05:09;;;;;;;25.65;14.18;;;2.20;63.00;;;;;;5061924;28;20259;-69
2022/03/01 03:07:37;;;;;;;22.55;13.20;;;2.10;63.10;;;;;;5036301;28;20212;-69
2022/03/01 03:10:07;;;;;;;22.30;13.30;;;2.10;63.00;;;;;;5036297;28;20221;-69
2022/03/01 03:12:36;;;;;;;22.65;13.90;;;2.10;63.10;;;;;;5030899;28;20205;-69
2022/03/01 03:15:05;;;;;;;25.63;14.13;;;2.10;63.10;;;;;;5032481;28;20286;-70
2022/03/01 03:17:33;;;;;;;24.27;13.50;;;2.00;63.30;;;;;;5033451;28;20225;-70
2022/03/01 03:20:01;;;;;;;29.80;15.70;;;2.00;63.20;;;;;;5049926;28;20212;-70
2022/03/01 03:22:29;;;;;;;25.23;14.10;;;2.00;63.20;;;;;;5030837;28;20202;-70
2022/03/01 03:24:57;;;;;;;23.02;13.73;;;2.00;63.20;;;;;;5050222;28;20320;-68
2022/03/01 03:27:25;;;;;;;22.73;12.98;;;2.00;63.30;;;;;;5036196;28;20213;-67
2022/03/01 03:29:55;;;;;;;22.98;13.00;;;2.00;63.20;;;;;;5031128;28;20213;-70
2022/03/01 03:32:23;;;;;;;21.85;13.27;;;1.90;63.20;;;;;;5031462;28;20236;-69
2022/03/01 03:34:51;;;;;;;23.27;13.40;;;1.90;63.20;;;;;;5030735;28;20217;-69
2022/03/01 03:37:18;;;;;;;16.92;11.38;;;1.90;63.20;;;;;;5030382;28;20213;-70
2022/03/01 03:39:46;;;;;;;26.80;14.38;;;1.90;63.30;;;;;;5033659;28;20211;-70
2022/03/01 03:42:14;;;;;;;20.33;13.55;;;1.90;63.20;;;;;;5035408;28;20890;-69
2022/03/01 03:44:42;;;;;;;21.15;13.05;;;1.90;63.20;;;;;;5033418;28;20224;-68
2022/03/01 03:47:12;;;;;;;22.58;12.80;;;1.90;63.20;;;;;;5036661;28;20221;-70
2022/03/01 03:49:40;;;;;;;22.70;12.43;;;1.90;63.20;;;;;;5036129;28;20209;-70
2022/03/01 03:52:09;;;;;;;21.52;13.55;;;1.90;63.20;;;;;;5033011;28;20209;-68
2022/03/01 03:54:37;;;;;;;24.60;12.70;;;1.90;63.30;;;;;;5033073;28;20740;-70
2022/03/01 03:57:08;;;;;;;25.85;14.00;;;1.90;63.30;;;;;;5063031;28;20216;-71
2022/03/01 03:59:37;;;;;;;26.25;13.25;;;1.80;63.30;;;;;;5034425;28;20865;-69
2022/03/01 04:02:06;;;;;;;24.38;13.52;;;1.80;63.30;;;;;;5033235;28;20244;-69
2022/03/01 04:04:36;;;;;;;21.90;12.70;;;1.80;63.50;;;;;;5037666;28;20235;-69
2022/03/01 04:07:05;;;;;;;23.52;12.90;;;1.80;63.50;;;;;;5034295;28;20200;-69
2022/03/01 04:09:34;;;;;;;23.35;13.93;;;1.70;63.60;;;;;;5030322;28;20208;-69
2022/03/01 04:12:02;;;;;;;23.15;13.15;;;1.70;63.50;;;;;;5033068;28;20214;-70
2022/03/01 04:14:30;;;;;;;20.85;12.90;;;1.70;63.50;;;;;;5036636;28;20790;-70
2022/03/01 04:17:01;;;;;;;22.02;13.27;;;1.60;63.60;;;;;;5030580;28;20232;-69
2022/03/01 04:19:29;;;;;;;23.60;13.63;;;1.60;63.70;;;;;;5036140;28;20254;-69
2022/03/01 04:21:58;;;;;;;27.83;13.55;;;1.50;63.70;;;;;;5033487;28;20201;-69
2022/03/01 04:24:27;;;;;;;21.40;13.05;;;1.50;63.80;;;;;;5030387;28;20220;-70
2022/03/01 04:26:55;;;;;;;25.45;12.60;;;1.50;63.80;;;;;;5030438;28;20209;-68
2022/03/01 04:29:24;;;;;;;25.35;14.75;;;1.50;63.80;;;;;;5031739;28;20855;-70
2022/03/01 04:31:52;;;;;;;23.80;13.50;;;1.60;63.90;;;;;;5033971;28;20233;-70
2022/03/01 04:34:20;;;;;;;28.75;14.85;;;1.60;64.00;;;;;;5034896;28;20248;-70
2022/03/01 04:36:48;;;;;;;22.35;12.82;;;1.60;64.00;;;;;;5033805;28;20206;-70
2022/03/01 04:39:18;;;;;;;26.15;14.18;;;1.70;64.00;;;;;;5036599;28;20217;-70
2022/03/01 04:41:46;;;;;;;24.10;13.65;;;1.70;64.00;;;;;;5031681;28;20200;-71
2022/03/01 04:44:14;;;;;;;37.95;17.88;;;1.70;63.90;;;;;;5037432;28;20204;-71
2022/03/01 04:46:43;;;;;;;52.78;21.13;;;1.70;64.00;;;;;;5039233;28;20689;-71
2022/03/01 04:49:11;;;;;;;37.47;19.40;;;1.70;64.00;;;;;;5036573;28;20702;-70
2022/03/01 04:51:39;;;;;;;29.48;17.30;;;1.60;64.00;;;;;;5030942;28;20216;-70
2022/03/01 04:54:07;;;;;;;29.60;16.55;;;1.60;63.90;;;;;;5031513;28;20230;-70
2022/03/01 04:56:37;;;;;;;26.20;16.58;;;1.70;64.10;;;;;;5029363;28;20205;-70
2022/03/01 04:59:05;;;;;;;25.50;14.98;;;1.70;64.20;;;;;;5034405;28;20704;-70
2022/03/01 05:01:33;;;;;;;26.13;15.25;;;1.80;64.20;;;;;;5030555;28;20240;-70
2022/03/01 05:04:05;;;;;;;29.92;15.73;;;1.80;64.20;;;;;;5036561;28;20205;-71
2022/03/01 05:06:33;;;;;;;23.90;15.82;;;1.90;64.30;;;;;;5029164;28;20204;-70
2022/03/01 05:09:01;;;;;;;24.98;15.55;;;2.00;64.30;;;;;;5028655;28;20247;-70
2022/03/01 05:11:29;;;;;;;24.40;14.52;;;2.00;64.20;;;;;;5033018;28;20202;-70
2022/03/01 05:13:58;;;;;;;25.10;14.35;;;2.10;64.20;;;;;;5026625;28;20213;-70
2022/03/01 05:16:26;;;;;;;22.30;14.27;;;2.10;64.20;;;;;;5032902;28;20277;-70
2022/03/01 05:18:54;;;;;;;25.30;14.10;;;2.20;64.10;;;;;;5034769;28;20193;-71
2022/03/01 05:21:22;;;;;;;26.05;14.23;;;2.20;64.10;;;;;;5031673;28;20211;-69
2022/03/01 05:23:50;;;;;;;27.90;15.68;;;2.20;64.00;;;;;;5034383;28;20189;-69
2022/03/01 05:26:18;;;;;;;26.13;14.57;;;2.10;64.00;;;;;;5033005;28;20221;-69
2022/03/01 05:28:46;;;;;;;25.85;14.98;;;2.10;63.90;;;;;;5030594;28;20247;-68
2022/03/01 05:31:17;;;;;;;31.15;18.42;;;2.10;63.90;;;;;;5032254;28;20248;-69
2022/03/01 05:33:47;;;;;;;26.08;16.92;;;2.10;63.80;;;;;;5032718;28;20211;-69
2022/03/01 05:36:15;;;;;;;27.75;16.70;;;2.00;63.80;;;;;;5029310;28;20220;-72
2022/03/01 05:38:44;;;;;;;27.17;14.55;;;2.00;63.90;;;;;;5032215;28;20658;-70
2022/03/01 05:41:12;;;;;;;30.63;16.20;;;1.90;63.90;;;;;;5032777;28;20205;-69
2022/03/01 05:43:42;;;;;;;26.00;14.60;;;1.90;63.70;;;;;;5027340;28;20303;-70
2022/03/01 05:46:10;;;;;;;26.25;15.98;;;1.80;63.90;;;;;;5028299;28;20237;-71
2022/03/01 05:48:40;;;;;;;24.90;14.00;;;1.70;63.80;;;;;;5029769;28;20284;-71
2022/03/01 05:51:08;;;;;;;28.08;15.07;;;1.70;63.80;;;;;;5031100;28;20208;-70
2022/03/01 05:53:36;;;;;;;25.30;15.18;;;1.60;63.80;;;;;;5032386;28;20204;-71
2022/03/01 05:56:04;;;;;;;27.65;17.35;;;1.60;63.70;;;;;;5032078;28;20229;-70
2022/03/01 05:58:32;;;;;;;24.67;15.05;;;1.50;63.70;;;;;;5029951;28;20212;-70
2022/03/01 06:01:02;;;;;;;31.27;15.35;;;1.40;63.70;;;;;;5029175;28;20237;-70
2022/03/01 06:03:30;;;;;;;24.35;15.23;;;1.40;63.80;;;;;;5031474;28;20197;-70
2022/03/01 06:05:59;;;;;;;23.33;14.32;;;1.30;63.90;;;;;;5031146;28;20236;-70
2022/03/01 06:08:28;;;;;;;29.20;16.50;;;1.30;64.00;;;;;;5036894;28;20220;-70
2022/03/01 06:10:56;;;;;;;24.80;14.35;;;1.40;64.10;;;;;;5033894;28;20757;-70
2022/03/01 06:13:24;;;;;;;28.85;16.60;;;1.40;64.10;;;;;;5032208;28;20636;-70
2022/03/01 06:15:52;;;;;;;23.67;14.98;;;1.40;64.20;;;;;;5032049;28;20244;-71
2022/03/01 06:18:21;;;;;;;26.52;16.23;;;1.40;64.10;;;;;;5031801;28;20219;-72
2022/03/01 06:20:49;;;;;;;30.27;15.48;;;1.40;64.10;;;;;;5035034;28;20223;-71
2022/03/01 06:23:18;;;;;;;29.52;17.73;;;1.40;64.20;;;;;;5035896;28;20217;-70
2022/03/01 06:25:46;;;;;;;28.27;16.10;;;1.40;64.10;;;;;;5034902;28;20224;-71
2022/03/01 06:28:14;;;;;;;29.58;15.48;;;1.40;64.00;;;;;;5039903;28;20208;-71
2022/03/01 06:30:42;;;;;;;26.25;16.50;;;1.30;64.20;;;;;;5035997;28;20224;-70
2022/03/01 06:33:10;;;;;;;28.13;17.15;;;1.30;64.20;;;;;;5038231;28;20220;-69
2022/03/01 06:35:38;;;;;;;27.85;17.38;;;1.20;64.30;;;;;;5038498;28;20255;-69
2022/03/01 06:38:06;;;;;;;27.77;17.20;;;1.30;64.40;;;;;;5033673;28;20627;-72
2022/03/01 06:40:36;;;;;;;23.73;16.17;;;1.30;64.40;;;;;;5030503;28;20267;-69
2022/03/01 06:43:04;;;;;;;24.52;16.52;;;1.30;64.40;;;;;;5062827;28;20470;-70
2022/03/01 06:45:32;;;;;;;30.60;17.50;;;1.30;64.40;;;;;;5068554;28;20275;-69
2022/03/01 06:48:00;;;;;;;25.40;14.82;;;1.20;64.50;;;;;;5034988;28;20197;-70
2022/03/01 06:50:28;;;;;;;20.70;13.98;;;1.20;64.50;;;;;;5035869;28;20215;-72
2022/03/01 06:52:56;;;;;;;25.38;16.10;;;1.20;64.50;;;;;;5032098;28;20216;-69
2022/03/01 06:55:24;;;;;;;26.00;14.43;;;1.20;64.50;;;;;;5034777;28;20229;-69
2022/03/01 06:57:53;;;;;;;26.10;15.20;;;1.20;64.50;;;;;;5033415;28;20213;-70
2022/03/01 07:00:23;;;;;;;30.65;19.15;;;1.20;64.60;;;;;;5039314;28;20811;-69
2022/03/01 07:02:51;;;;;;;28.55;16.60;;;1.20;64.60;;;;;;5033326;28;20205;-69
2022/03/01 07:05:20;;;;;;;24.38;14.80;;;1.20;64.60;;;;;;5036986;28;20603;-69
2022/03/01 07:07:48;;;;;;;27.05;14.93;;;1.30;64.60;;;;;;5035541;28;20193;-70
2022/03/01 07:10:16;;;;;;;23.70;14.82;;;1.30;64.60;;;;;;5035123;28;20207;-70
2022/03/01 07:12:46;;;;;;;53.58;21.23;;;1.30;64.70;;;;;;5030794;28;20404;-69
2022/03/01 07:15:16;;;;;;;23.85;14.63;;;1.30;64.60;;;;;;5030783;28;20229;-69
2022/03/01 07:17:45;;;;;;;28.90;14.32;;;1.30;64.70;;;;;;5033826;28;20221;-70
2022/03/01 07:20:14;;;;;;;22.48;13.52;;;1.30;64.70;;;;;;5035125;28;20209;-70
2022/03/01 07:22:42;;;;;;;22.33;13.70;;;1.30;64.70;;;;;;5033704;28;20246;-70
2022/03/01 07:25:11;;;;;;;24.95;14.30;;;1.40;64.70;;;;;;5032982;28;20283;-69
2022/03/01 07:27:46;;;;;;;25.40;13.98;;;1.40;64.70;;;;;;5036336;28;20219;-70
2022/03/01 07:30:15;;;;;;;18.05;12.15;;;1.40;64.90;;;;;;5033924;28;20861;-69
2022/03/01 07:32:44;;;;;;;22.17;11.90;;;1.50;64.70;;;;;;5029673;28;20193;-69
2022/03/01 07:35:12;;;;;;;25.65;14.75;;;1.50;64.90;;;;;;5030143;28;20220;-69
2022/03/01 07:37:40;;;;;;;35.22;17.23;;;1.50;64.70;;;;;;5035022;28;20240;-69
2022/03/01 07:40:11;;;;;;;28.65;15.68;;;1.50;64.60;;;;;;5031098;28;20315;-71
2022/03/01 07:42:39;;;;;;;23.30;12.90;;;1.50;64.60;;;;;;5033237;28;20248;-71
2022/03/01 07:45:08;;;;;;;25.42;13.32;;;1.50;64.70;;;;;;5033717;28;20221;-70
2022/03/01 07:47:38;;;;;;;22.52;12.10;;;1.50;64.70;;;;;;5033280;28;20193;-71
2022/03/01 07:50:07;;;;;;;20.17;11.52;;;1.60;64.80;;;;;;5035069;28;20372;-70
2022/03/01 07:52:35;;;;;;;18.40;11.20;;;1.60;64.80;;;;;;5033174;28;20735;-70
2022/03/01 07:55:04;;;;;;;19.45;11.50;;;1.60;64.70;;;;;;5040048;28;20300;-70
2022/03/01 07:57:32;;;;;;;22.52;11.75;;;1.70;64.80;;;;;;5033889;28;20270;-71
2022/03/01 08:00:00;;;;;;;24.33;13.48;;;1.70;64.90;;;;;;5063765;28;20316;-70
2022/03/01 08:02:28;;;;;;;21.95;12.93;;;1.80;64.90;;;;;;5037680;28;20235;-70
2022/03/01 08:04:57;;;;;;;24.52;11.73;;;1.90;64.90;;;;;;5037952;28;20259;-70
2022/03/01 08:07:45;;;;;;;22.05;12.35;;;2.00;64.60;;;;;;5036362;28;20662;-70
2022/03/01 08:10:13;;;;;;;19.67;11.00;;;2.00;64.40;;;;;;5033713;28;20215;-70
2022/03/01 08:12:41;;;;;;;17.55;10.68;;;2.10;64.60;;;;;;5033927;28;20216;-70
2022/03/01 08:15:10;;;;;;;18.30;12.02;;;2.10;64.40;;;;;;5033687;28;20232;-70
2022/03/01 08:17:46;;;;;;;26.38;13.57;;;2.20;64.20;;;;;;5035148;28;20212;-69
2022/03/01 08:20:16;;;;;;;21.73;10.77;;;2.30;64.00;;;;;;5035564;28;20215;-70
2022/03/01 08:22:44;;;;;;;21.88;11.15;;;2.30;64.00;;;;;;5035300;28;20211;-68
2022/03/01 08:25:13;;;;;;;17.67;11.00;;;2.30;63.80;;;;;;5039236;28;20229;-70
2022/03/01 08:27:41;;;;;;;17.15;10.75;;;2.40;63.90;;;;;;5034787;28;20205;-72
2022/03/01 08:30:10;;;;;;;22.10;12.43;;;2.40;64.00;;;;;;5031869;28;20258;-70
2022/03/01 08:32:39;;;;;;;18.75;10.50;;;2.50;63.60;;;;;;5035787;28;20201;-71
2022/03/01 08:35:07;;;;;;;19.77;11.05;;;2.50;63.30;;;;;;5035985;28;20232;-71
2022/03/01 08:37:37;;;;;;;19.33;10.20;;;2.50;63.20;;;;;;5037213;28;20274;-71
2022/03/01 08:40:06;;;;;;;17.05;9.23;;;2.50;63.00;;;;;;5034470;28;21096;-71
2022/03/01 08:42:34;;;;;;;15.13;9.75;;;2.60;63.00;;;;;;5037045;28;20206;-72
2022/03/01 08:45:02;;;;;;;15.55;9.93;;;2.60;62.90;;;;;;5030800;28;20221;-70
2022/03/01 08:47:34;;;;;;;15.98;9.38;;;2.60;63.20;;;;;;5036283;28;20236;-72
2022/03/01 08:50:02;;;;;;;14.68;9.90;;;2.70;62.70;;;;;;5038041;28;20204;-71
2022/03/01 08:52:52;;;;;;;19.52;9.98;;;2.70;62.50;;;;;;5032102;28;20689;-71
2022/03/01 08:55:20;;;;;;;14.43;8.80;;;2.70;62.50;;;;;;5029585;28;20745;-72
2022/03/01 08:57:48;;;;;;;17.23;9.45;;;2.80;62.50;;;;;;5027866;28;20220;-72
2022/03/01 09:00:17;;;;;;;14.35;9.25;;;2.80;62.20;;;;;;5031448;28;20217;-71
2022/03/01 09:02:46;;;;;;;15.02;9.43;;;2.80;62.40;;;;;;5032290;28;20212;-72
2022/03/01 09:05:14;;;;;;;15.30;9.13;;;2.90;62.10;;;;;;5031919;28;20291;-71
2022/03/01 09:07:42;;;;;;;13.10;7.82;;;2.90;62.10;;;;;;5030754;28;20203;-72
2022/03/01 09:10:12;;;;;;;18.33;9.43;;;3.00;61.80;;;;;;5035800;28;20201;-71
2022/03/01 09:12:40;;;;;;;17.50;9.90;;;3.00;61.60;;;;;;5035916;28;20217;-71
2022/03/01 09:15:08;;;;;;;14.32;9.27;;;3.10;61.70;;;;;;5034036;28;20921;-71
2022/03/01 09:17:36;;;;;;;16.08;9.43;;;3.10;61.50;;;;;;5036373;28;20725;-71
2022/03/01 09:20:05;;;;;;;16.05;9.45;;;3.10;61.80;;;;;;5049699;28;20205;-70
2022/03/01 09:22:34;;;;;;;17.13;9.52;;;3.20;61.60;;;;;;5035466;28;20201;-71
2022/03/01 09:25:04;;;;;;;17.92;10.70;;;3.20;61.50;;;;;;5038248;28;20224;-71
2022/03/01 09:27:33;;;;;;;18.42;10.50;;;3.20;61.40;;;;;;5036170;28;20666;-71
2022/03/01 09:30:02;;;;;;;16.55;11.02;;;3.30;61.60;;;;;;5030182;28;20682;-70
2022/03/01 09:32:30;;;;;;;18.30;11.30;;;3.40;61.60;;;;;;5034243;28;20228;-70
2022/03/01 09:34:58;;;;;;;18.75;9.90;;;3.40;61.50;;;;;;5031990;28;20231;-70
2022/03/01 09:37:28;;;;;;;13.73;9.43;;;3.40;61.60;;;;;;5029737;28;20449;-71
2022/03/01 09:39:55;;;;;;;17.17;10.32;;;3.50;61.50;;;;;;5031970;28;20270;-70
2022/03/01 09:42:24;;;;;;;16.00;9.98;;;3.60;61.50;;;;;;5033923;28;20709;-71
2022/03/01 09:44:54;;;;;;;18.02;10.43;;;3.60;61.10;;;;;;5035694;28;20232;-70
2022/03/01 09:47:23;;;;;;;17.10;9.75;;;3.60;61.00;;;;;;5035737;28;20228;-71
2022/03/01 09:49:52;;;;;;;17.73;10.13;;;3.60;61.10;;;;;;5033457;28;20204;-70
2022/03/01 09:52:20;;;;;;;18.88;10.40;;;3.70;61.00;;;;;;5033054;28;20200;-70
2022/03/01 09:54:50;;;;;;;19.17;10.43;;;3.70;61.20;;;;;;5032968;28;20216;-71
2022/03/01 09:57:19;;;;;;;14.48;9.57;;;3.70;61.20;;;;;;5040077;28;20209;-70
2022/03/01 09:59:49;;;;;;;17.52;10.07;;;3.80;61.00;;;;;;5034087;28;20570;-70
2022/03/01 10:02:18;;;;;;;16.00;10.15;;;3.80;61.00;;;;;;5037281;28;20248;-70
2022/03/01 10:04:52;;;;;;;16.40;9.45;;;3.80;60.80;;;;;;5050172;28;20229;-70
2022/03/01 10:07:24;;;;;;;18.70;10.95;;;3.80;60.40;;;;;;5036082;28;20213;-70
2022/03/01 10:09:52;;;;;;;16.73;10.18;;;3.80;60.80;;;;;;5036161;28;20259;-70
2022/03/01 10:12:24;;;;;;;15.35;9.80;;;3.90;60.80;;;;;;5034920;28;20223;-71
2022/03/01 10:15:02;;;;;;;16.60;10.85;;;3.90;60.80;;;;;;5035576;28;20234;-70
2022/03/01 10:17:36;;;;;;;17.63;10.48;;;4.00;60.40;;;;;;5035401;28;20224;-70
2022/03/01 10:20:07;;;;;;;19.55;10.32;;;4.00;60.70;;;;;;5034134;28;20259;-70
2022/03/01 10:22:37;;;;;;;20.10;11.55;;;4.00;60.30;;;;;;5037205;28;20203;-71
2022/03/01 10:25:08;;;;;;;29.27;15.38;;;4.10;60.40;;;;;;5037721;28;20229;-70
2022/03/01 10:27:36;;;;;;;17.13;11.00;;;4.10;60.50;;;;;;5033852;28;20208;-70
2022/03/01 10:30:06;;;;;;;21.80;11.18;;;4.20;60.30;;;;;;5034058;28;20247;-70
2022/03/01 10:32:36;;;;;;;17.63;9.85;;;4.20;60.30;;;;;;5033795;28;20620;-70
2022/03/01 10:35:11;;;;;;;21.35;10.75;;;4.20;59.70;;;;;;5032599;28;20716;-70
2022/03/01 10:37:40;;;;;;;15.68;10.23;;;4.30;59.80;;;;;;5034040;28;20231;-70
2022/03/01 10:40:27;;;;;;;17.45;9.38;;;4.30;59.80;;;;;;5033964;28;20281;-70
2022/03/01 10:43:03;;;;;;;20.75;11.40;;;4.30;60.10;;;;;;5036855;28;20201;-71
2022/03/01 10:45:33;;;;;;;20.55;11.10;;;4.40;60.00;;;;;;5036023;28;20244;-71
2022/03/01 10:48:04;;;;;;;18.80;10.25;;;4.40;59.90;;;;;;5034410;28;20813;-71
2022/03/01 10:50:32;;;;;;;17.67;10.65;;;4.40;59.80;;;;;;5033280;28;20210;-71
2022/03/01 10:53:00;;;;;;;20.50;11.73;;;4.50;59.70;;;;;;5034551;28;20224;-72
2022/03/01 10:55:31;;;;;;;18.95;11.25;;;4.50;59.70;;;;;;5033380;28;20939;-71
2022/03/01 10:58:00;;;;;;;15.35;9.68;;;4.50;59.40;;;;;;5032030;28;20221;-72
2022/03/01 11:00:28;;;;;;;18.02;10.07;;;4.60;59.40;;;;;;5032781;28;20244;-72
2022/03/01 11:03:02;;;;;;;16.95;10.02;;;4.60;59.00;;;;;;5031827;28;20307;-72
2022/03/01 11:05:31;;;;;;;18.40;10.80;;;4.70;59.10;;;;;;5034398;28;20319;-72
2022/03/01 11:08:21;;;;;;;15.23;9.95;;;4.70;59.10;;;;;;5035344;28;20197;-71
2022/03/01 11:10:53;;;;;;;16.10;10.25;;;4.70;58.90;;;;;;5042449;28;20677;-71
2022/03/01 11:13:24;;;;;;;16.42;10.63;;;4.80;59.00;;;;;;5036399;28;20213;-71
2022/03/01 11:16:10;;;;;;;17.33;10.40;;;4.80;59.00;;;;;;5034959;28;20232;-72
2022/03/01 11:18:50;;;;;;;16.17;10.27;;;4.90;58.70;;;;;;5033848;28;20247;-72
2022/03/01 11:21:21;;;;;;;18.58;9.93;;;4.90;58.80;;;;;;5034403;28;20361;-72
2022/03/01 11:23:53;;;;;;;14.63;9.90;;;5.00;58.50;;;;;;5037604;28;20200;-72
2022/03/01 11:26:22;;;;;;;14.38;8.80;;;5.00;58.70;;;;;;5037025;28;20244;-70
2022/03/01 11:28:54;;;;;;;14.88;10.10;;;5.00;58.40;;;;;;5041560;28;20213;-71
2022/03/01 11:31:26;;;;;;;14.95;9.63;;;5.00;58.20;;;;;;5035036;28;20251;-71
2022/03/01 11:33:57;;;;;;;21.17;11.05;;;5.10;58.10;;;;;;5036152;28;20201;-71
2022/03/01 11:36:31;;;;;;;17.80;10.15;;;5.10;58.30;;;;;;5035707;28;20868;-71
2022/03/01 11:39:09;;;;;;;15.75;9.43;;;5.20;58.10;;;;;;5035873;28;20205;-71
2022/03/01 11:41:48;;;;;;;18.10;10.40;;;5.20;58.10;;;;;;5036792;28;20200;-71
2022/03/01 11:44:20;;;;;;;16.48;10.60;;;5.30;58.20;;;;;;5041281;28;20209;-71
2022/03/01 11:46:50;;;;;;;12.45;8.63;;;5.30;58.00;;;;;;5034727;28;20228;-72
2022/03/01 11:49:22;;;;;;;15.43;9.25;;;5.30;57.80;;;;;;5033609;28;20201;-72
2022/03/01 11:51:54;;;;;;;17.27;9.90;;;5.40;57.70;;;;;;5033329;28;20248;-73
2022/03/01 11:54:24;;;;;;;15.55;8.85;;;5.40;57.70;;;;;;5032962;28;20208;-72
2022/03/01 11:56:54;;;;;;;13.65;8.75;;;5.50;57.70;;;;;;5035759;28;20289;-71
2022/03/01 11:59:22;;;;;;;17.10;10.02;;;5.50;57.60;;;;;;5033160;28;20344;-72
2022/03/01 12:02:11;;;;;;;18.40;10.18;;;5.50;56.60;;;;;;5034751;28;20248;-70
2022/03/01 12:04:47;;;;;;;14.70;9.07;;;5.60;57.10;;;;;;5033940;28;20240;-71
2022/03/01 12:07:20;;;;;;;19.20;12.07;;;5.60;57.10;;;;;;5033520;28;20201;-72
2022/03/01 12:09:57;;;;;;;14.68;9.52;;;5.70;56.80;;;;;;5031698;28;20902;-72
2022/03/01 12:12:33;;;;;;;15.13;9.43;;;5.70;56.70;;;;;;5034907;28;20687;-71
2022/03/01 12:15:03;;;;;;;14.13;9.18;;;5.70;56.70;;;;;;5035517;28;20231;-71
2022/03/01 12:17:44;;;;;;;14.48;8.18;;;5.80;56.90;;;;;;5036682;28;20312;-72
2022/03/01 12:20:15;;;;;;;15.82;8.80;;;5.80;56.50;;;;;;5037925;28;20220;-71
2022/03/01 12:22:57;;;;;;;15.98;9.00;;;5.80;56.30;;;;;;5033242;28;20208;-71
2022/03/01 12:25:26;;;;;;;14.05;7.60;;;5.90;55.80;;;;;;5034814;28;20275;-71
2022/03/01 12:27:55;;;;;;;15.57;8.60;;;5.90;56.10;;;;;;5032348;28;20231;-71
2022/03/01 12:30:26;;;;;;;18.42;10.18;;;5.90;55.40;;;;;;5037026;28;20197;-71
2022/03/01 12:32:56;;;;;;;13.40;8.35;;;5.90;55.60;;;;;;5039275;28;21076;-71
2022/03/01 12:35:31;;;;;;;13.80;8.52;;;5.90;55.90;;;;;;5033613;28;20225;-71
2022/03/01 12:38:07;;;;;;;17.58;9.48;;;6.00;55.90;;;;;;5015349;28;20271;-71
2022/03/01 12:40:37;;;;;;;15.27;8.93;;;6.00;55.60;;;;;;5034080;28;20629;-71
2022/03/01 12:43:07;;;;;;;17.70;10.27;;;6.10;55.80;;;;;;5036408;28;20208;-71
2022/03/01 12:45:36;;;;;;;14.02;8.60;;;6.10;55.50;;;;;;5024500;28;20232;-71
2022/03/01 12:48:08;;;;;;;15.00;9.48;;;6.10;55.50;;;;;;5034479;28;20315;-70
2022/03/01 12:50:45;;;;;;;15.95;8.68;;;6.20;55.20;;;;;;5034374;28;20255;-70